Time;durP1;ratioP1;P1;durP2;ratioP2;P2;SDS_P1;SDS_P2;PMS_P1;PMS_P2;Temp;Humidity;BMP_temperature;BMP_pressure;BME280_temperature;BME280_humidity;BME280_pressure;Samples;Min_cycle;Max_cycle;Signal;HPM_P1;HPM_P2
2021/06/23 00:00:44;0.00;0.00;0.62;0.00;0.00;0.62;3.00;2.37;;;27.70;29.20;;;;;;2249583;61;20404;-63
2021/06/23 00:03:11;0.00;0.00;0.62;0.00;0.00;0.62;3.40;2.87;;;27.70;29.30;;;;;;2249358;61;20417;-64
2021/06/23 00:05:38;0.00;0.00;0.62;0.00;0.00;0.62;4.43;2.50;;;27.70;29.30;;;;;;2249338;61;20369;-66
2021/06/23 00:08:06;0.00;0.00;0.62;0.00;0.00;0.62;4.50;2.43;;;27.70;29.30;;;;;;2249670;61;20357;-66
2021/06/23 00:10:33;0.00;0.00;0.62;0.00;0.00;0.62;4.60;2.63;;;27.70;29.30;;;;;;2249188;61;20371;-61
2021/06/23 00:13:04;0.00;0.00;0.62;0.00;0.00;0.62;7.43;2.90;;;27.70;29.30;;;;;;2252153;61;20650;-64
2021/06/23 00:15:33;0.00;0.00;0.62;0.00;0.00;0.62;3.00;2.27;;;27.70;29.30;;;;;;2249726;61;20682;-63
2021/06/23 00:18:00;0.00;0.00;0.62;0.00;0.00;0.62;3.30;2.30;;;27.70;29.30;;;;;;2249241;61;20362;-64
2021/06/23 00:20:27;0.00;0.00;0.62;0.00;0.00;0.62;4.83;2.63;;;27.70;29.30;;;;;;2249155;61;20393;-64
2021/06/23 00:22:53;0.00;0.00;0.62;0.00;0.00;0.62;3.73;2.83;;;27.70;29.20;;;;;;2249632;61;20464;-67
2021/06/23 00:25:21;0.00;0.00;0.62;0.00;0.00;0.62;3.73;2.33;;;27.70;29.20;;;;;;2249235;61;20365;-63
2021/06/23 00:27:47;0.00;0.00;0.62;0.00;0.00;0.62;4.53;2.60;;;27.70;29.20;;;;;;2252117;61;20362;-62
2021/06/23 00:30:16;0.00;0.00;0.62;0.00;0.00;0.62;3.30;2.20;;;27.70;29.20;;;;;;2249486;61;20692;-63
2021/06/23 00:32:46;0.00;0.00;0.62;0.00;0.00;0.62;3.07;2.50;;;27.70;29.20;;;;;;2249206;61;20392;-66
2021/06/23 00:35:14;0.00;0.00;0.62;0.00;0.00;0.62;3.23;2.50;;;27.70;29.20;;;;;;2252082;61;20409;-66
2021/06/23 00:37:41;0.00;0.00;0.62;0.00;0.00;0.62;5.63;2.60;;;27.70;29.20;;;;;;2249624;61;20369;-62
2021/06/23 00:40:11;0.00;0.00;0.62;0.00;0.00;0.62;2.20;2.00;;;27.70;29.20;;;;;;2249060;61;20705;-68
2021/06/23 00:42:40;0.00;0.00;0.62;0.00;0.00;0.62;3.67;2.17;;;27.70;29.30;;;;;;2252081;61;20557;-66
2021/06/23 00:45:12;0.00;0.00;0.62;0.00;0.00;0.62;3.33;2.20;;;27.70;29.30;;;;;;2249504;61;20455;-61
2021/06/23 00:47:42;0.00;0.00;0.62;0.00;0.00;0.62;2.90;2.40;;;27.70;29.30;;;;;;2251961;61;20462;-63
2021/06/23 00:50:15;0.00;0.00;0.62;0.00;0.00;0.62;3.00;2.13;;;27.70;29.30;;;;;;2251940;61;20362;-65
2021/06/23 00:52:56;0.00;0.00;0.62;0.00;0.00;0.62;2.43;2.10;;;27.70;29.30;;;;;;2252316;61;20400;-66
2021/06/23 00:55:33;0.00;0.00;0.62;0.00;0.00;0.62;4.00;2.50;;;27.70;29.30;;;;;;2251657;61;20694;-66
2021/06/23 00:58:01;0.00;0.00;0.62;0.00;0.00;0.62;4.07;2.60;;;27.70;29.30;;;;;;2249546;61;20374;-65
2021/06/23 01:00:32;0.00;0.00;0.62;0.00;0.00;0.62;3.67;2.47;;;27.70;29.40;;;;;;2252100;61;20811;-68
2021/06/23 01:03:06;0.00;0.00;0.62;0.00;0.00;0.62;3.43;2.20;;;27.70;29.40;;;;;;2248821;61;20389;-60
2021/06/23 01:05:37;0.00;0.00;0.62;0.00;0.00;0.62;7.53;3.20;;;27.70;29.40;;;;;;2252269;61;20664;-63
2021/06/23 01:08:09;0.00;0.00;0.62;0.00;0.00;0.62;3.23;2.70;;;27.70;29.40;;;;;;2252319;61;20420;-65
2021/06/23 01:10:37;0.00;0.00;0.62;0.00;0.00;0.62;3.73;2.57;;;27.70;29.40;;;;;;2251495;61;20437;-64
2021/06/23 01:13:47;0.00;0.00;0.62;0.00;0.00;0.62;3.90;2.43;;;27.70;29.40;;;;;;2249448;61;20615;-68
2021/06/23 01:16:17;0.00;0.00;0.62;0.00;0.00;0.62;2.93;2.63;;;27.70;29.50;;;;;;2251974;61;20357;-65
2021/06/23 01:18:45;0.00;0.00;0.62;0.00;0.00;0.62;3.50;2.50;;;27.70;29.40;;;;;;2251864;61;20357;-64
2021/06/23 01:21:14;0.00;0.00;0.62;0.00;0.00;0.62;4.60;2.77;;;27.70;29.50;;;;;;2249346;61;20382;-61
2021/06/23 01:23:42;0.00;0.00;0.62;0.00;0.00;0.62;2.57;2.37;;;27.70;29.50;;;;;;2252003;61;20393;-66
2021/06/23 01:26:09;0.00;0.00;0.62;0.00;0.00;0.62;4.40;2.67;;;27.70;29.50;;;;;;2251887;61;20373;-61
2021/06/23 01:28:40;0.00;0.00;0.62;0.00;0.00;0.62;3.40;2.20;;;27.70;29.50;;;;;;2252301;61;20369;-65
2021/06/23 01:31:17;0.00;0.00;0.62;0.00;0.00;0.62;2.50;2.00;;;27.70;29.40;;;;;;2249075;61;20372;-65
2021/06/23 01:33:48;0.00;0.00;0.62;0.00;0.00;0.62;2.77;2.20;;;27.60;29.40;;;;;;2251930;61;20364;-63
2021/06/23 01:36:16;0.00;0.00;0.62;0.00;0.00;0.62;3.10;2.17;;;27.60;29.40;;;;;;2252281;61;20599;-65
2021/06/23 01:38:44;0.00;0.00;0.62;0.00;0.00;0.62;3.00;2.27;;;27.60;29.40;;;;;;2248983;61;20369;-65
2021/06/23 01:41:12;0.00;0.00;0.62;0.00;0.00;0.62;3.00;2.53;;;27.70;29.40;;;;;;2251768;61;20385;-64
2021/06/23 01:43:42;0.00;0.00;0.62;0.00;0.00;0.62;3.40;2.43;;;27.60;29.40;;;;;;2249445;61;20385;-66
2021/06/23 01:46:09;0.00;0.00;0.62;0.00;0.00;0.62;3.27;2.10;;;27.60;29.40;;;;;;2248978;61;20357;-64
2021/06/23 01:48:36;0.00;0.00;0.62;0.00;0.00;0.62;2.57;2.30;;;27.60;29.40;;;;;;2249114;61;20365;-64
2021/06/23 01:51:04;0.00;0.00;0.62;0.00;0.00;0.62;5.17;2.47;;;27.60;29.40;;;;;;2252034;61;20447;-63
2021/06/23 01:53:39;0.00;0.00;0.62;0.00;0.00;0.62;2.97;2.50;;;27.60;29.30;;;;;;2251655;61;20388;-65
2021/06/23 01:56:08;0.00;0.00;0.62;0.00;0.00;0.62;3.67;2.43;;;27.60;29.40;;;;;;2251922;61;20369;-64
2021/06/23 01:58:40;0.00;0.00;0.62;0.00;0.00;0.62;2.87;2.47;;;27.60;29.40;;;;;;2249297;61;20365;-67
2021/06/23 02:01:22;0.00;0.00;0.62;0.00;0.00;0.62;3.07;2.77;;;27.60;29.40;;;;;;2251690;61;20779;-65
2021/06/23 02:04:21;0.00;0.00;0.62;0.00;0.00;0.62;2.90;2.10;;;27.60;29.40;;;;;;2249110;61;20369;-63
2021/06/23 02:07:19;0.00;0.00;0.62;0.00;0.00;0.62;4.90;2.50;;;27.60;29.40;;;;;;2252046;61;20377;-63
2021/06/23 02:10:19;0.00;0.00;0.62;0.00;0.00;0.62;4.97;2.20;;;27.60;29.30;;;;;;2251451;61;20392;-65
2021/06/23 02:14:02;0.00;0.00;0.62;0.00;0.00;0.62;4.93;2.73;;;27.60;29.40;;;;;;2249075;61;20397;-65
2021/06/23 02:16:39;0.00;0.00;0.62;0.00;0.00;0.62;3.20;2.17;;;27.60;29.30;;;;;;2248975;61;20409;-65
2021/06/23 02:19:12;0.00;0.00;0.62;0.00;0.00;0.62;2.97;2.00;;;27.60;29.30;;;;;;2251914;61;20366;-64
2021/06/23 02:22:04;0.00;0.00;0.62;0.00;0.00;0.62;2.57;2.07;;;27.60;29.90;;;;;;2252135;61;20393;-63
2021/06/23 02:24:34;0.00;0.00;0.62;0.00;0.00;0.62;3.50;2.40;;;27.60;29.30;;;;;;2251718;61;20374;-61
2021/06/23 02:27:09;0.00;0.00;0.62;0.00;0.00;0.62;3.53;2.80;;;27.60;29.30;;;;;;2252779;61;20424;-65
2021/06/23 02:29:40;0.00;0.00;0.62;0.00;0.00;0.62;3.93;2.57;;;27.60;29.30;;;;;;2252738;61;20357;-67
2021/06/23 02:32:12;0.00;0.00;0.62;0.00;0.00;0.62;3.53;2.27;;;27.60;29.30;;;;;;2252186;61;20385;-65
2021/06/23 02:34:41;0.00;0.00;0.62;0.00;0.00;0.62;2.37;2.17;;;27.60;29.30;;;;;;2252764;61;20563;-63
2021/06/23 02:37:13;0.00;0.00;0.62;0.00;0.00;0.62;2.83;2.20;;;27.50;29.20;;;;;;2250039;61;20374;-65
2021/06/23 02:39:41;0.00;0.00;0.62;0.00;0.00;0.62;5.27;2.77;;;27.60;29.30;;;;;;2251930;61;20373;-65
2021/06/23 02:42:10;0.00;0.00;0.62;0.00;0.00;0.62;2.37;2.00;;;27.50;29.30;;;;;;2252738;61;20431;-64
2021/06/23 02:44:40;0.00;0.00;0.62;0.00;0.00;0.62;3.00;2.13;;;27.50;29.30;;;;;;2249976;61;20416;-63
2021/06/23 02:47:08;0.00;0.00;0.62;0.00;0.00;0.62;2.70;2.37;;;27.50;29.30;;;;;;2252000;61;20380;-67
2021/06/23 02:50:12;0.00;0.00;0.62;0.00;0.00;0.62;3.37;2.70;;;27.50;29.30;;;;;;2249654;61;20448;-65
2021/06/23 02:52:57;0.00;0.00;0.62;0.00;0.00;0.62;2.93;2.50;;;27.50;29.30;;;;;;2249636;61;20386;-66
2021/06/23 02:55:28;0.00;0.00;0.62;0.00;0.00;0.62;2.77;1.97;;;27.50;29.30;;;;;;2249540;61;20613;-61
2021/06/23 02:57:55;0.00;0.00;0.62;0.00;0.00;0.62;2.53;2.30;;;27.60;29.40;;;;;;2252696;61;20376;-64
2021/06/23 03:00:25;0.00;0.00;0.62;0.00;0.00;0.62;3.10;2.27;;;27.50;29.30;;;;;;2252300;61;20416;-63
2021/06/23 03:02:53;0.00;0.00;0.62;0.00;0.00;0.62;3.50;2.53;;;27.60;29.40;;;;;;2252320;61;20385;-65
2021/06/23 03:05:20;0.00;0.00;0.62;0.00;0.00;0.62;3.97;2.20;;;27.50;29.30;;;;;;2252588;61;20366;-63
2021/06/23 03:07:47;0.00;0.00;0.62;0.00;0.00;0.62;4.83;2.63;;;27.50;29.30;;;;;;2252405;61;20368;-65
2021/06/23 03:10:23;0.00;0.00;0.62;0.00;0.00;0.62;2.70;1.97;;;27.50;29.30;;;;;;2252306;61;20399;-66
2021/06/23 03:12:59;0.00;0.00;0.62;0.00;0.00;0.62;5.60;2.53;;;27.50;29.30;;;;;;2249871;61;20381;-63
2021/06/23 03:15:51;0.00;0.00;0.62;0.00;0.00;0.62;3.80;2.23;;;27.50;29.30;;;;;;2251520;61;20405;-64
2021/06/23 03:18:29;0.00;0.00;0.62;0.00;0.00;0.62;2.83;2.40;;;27.50;29.40;;;;;;2252379;61;20439;-66
2021/06/23 03:20:56;0.00;0.00;0.62;0.00;0.00;0.62;2.70;2.20;;;27.50;29.40;;;;;;2252566;61;20778;-65
2021/06/23 03:23:22;0.00;0.00;0.62;0.00;0.00;0.62;3.67;2.90;;;27.50;29.40;;;;;;2249049;61;20392;-66
2021/06/23 03:25:49;0.00;0.00;0.62;0.00;0.00;0.62;2.60;2.37;;;27.50;29.40;;;;;;2252560;61;20397;-66
2021/06/23 03:28:17;0.00;0.00;0.62;0.00;0.00;0.62;3.00;2.40;;;27.50;29.40;;;;;;2252623;61;20366;-64
2021/06/23 03:30:52;0.00;0.00;0.62;0.00;0.00;0.62;3.30;3.00;;;27.50;29.40;;;;;;2251746;61;20350;-64
2021/06/23 03:33:19;0.00;0.00;0.62;0.00;0.00;0.62;3.97;2.30;;;27.50;29.40;;;;;;2252523;61;20753;-63
2021/06/23 03:36:07;0.00;0.00;0.62;0.00;0.00;0.62;2.83;2.43;;;27.50;29.40;;;;;;2249746;61;20365;-64
2021/06/23 03:38:34;0.00;0.00;0.62;0.00;0.00;0.62;4.43;2.33;;;27.50;29.40;;;;;;2251732;61;20377;-67
2021/06/23 03:41:02;0.00;0.00;0.62;0.00;0.00;0.62;5.20;2.30;;;27.50;29.40;;;;;;2252484;61;20477;-66
2021/06/23 03:43:29;0.00;0.00;0.62;0.00;0.00;0.62;3.07;2.30;;;27.40;29.30;;;;;;2249808;61;20428;-63
2021/06/23 03:45:58;0.00;0.00;0.62;0.00;0.00;0.62;4.00;2.73;;;27.50;29.40;;;;;;2251819;61;20784;-66
2021/06/23 03:48:24;0.00;0.00;0.62;0.00;0.00;0.62;4.77;2.53;;;27.50;29.40;;;;;;2252595;61;20753;-65
2021/06/23 03:51:02;0.00;0.00;0.62;0.00;0.00;0.62;6.60;2.83;;;27.50;29.40;;;;;;2249629;61;20358;-64
2021/06/23 03:53:29;0.00;0.00;0.62;0.00;0.00;0.62;3.13;2.80;;;27.50;29.40;;;;;;2251848;61;20378;-64
2021/06/23 03:56:00;0.00;0.00;0.62;0.00;0.00;0.62;2.73;2.37;;;27.50;29.40;;;;;;2249832;61;20509;-65
2021/06/23 03:58:29;0.00;0.00;0.62;0.00;0.00;0.62;2.80;2.20;;;27.50;29.40;;;;;;2252483;61;20362;-65
2021/06/23 04:00:59;0.00;0.00;0.62;0.00;0.00;0.62;3.83;2.63;;;27.40;29.30;;;;;;2248963;61;20386;-65
2021/06/23 04:03:52;0.00;0.00;0.62;0.00;0.00;0.62;4.80;2.50;;;27.40;29.40;;;;;;2252028;61;20719;-66
2021/06/23 04:06:32;0.00;0.00;0.62;0.00;0.00;0.62;2.93;2.63;;;27.50;29.40;;;;;;2252012;61;20380;-63
2021/06/23 04:09:03;0.00;0.00;0.62;0.00;0.00;0.62;3.40;2.73;;;27.50;29.40;;;;;;2249449;61;20362;-63
2021/06/23 04:11:32;0.00;0.00;0.62;0.00;0.00;0.62;3.60;2.33;;;27.50;29.40;;;;;;2252391;61;20393;-64
2021/06/23 04:14:01;0.00;0.00;0.62;0.00;0.00;0.62;4.20;2.70;;;27.50;29.40;;;;;;2252094;61;20603;-66
2021/06/23 04:16:30;0.00;0.00;0.62;0.00;0.00;0.62;4.83;2.60;;;27.40;29.30;;;;;;2249415;61;20624;-67
2021/06/23 04:18:58;0.00;0.00;0.62;0.00;0.00;0.62;4.80;2.77;;;27.40;29.30;;;;;;2252433;61;20453;-63
2021/06/23 04:21:26;0.00;0.00;0.62;0.00;0.00;0.62;3.00;2.70;;;27.40;29.30;;;;;;2251897;61;20525;-66
2021/06/23 04:23:59;0.00;0.00;0.62;0.00;0.00;0.62;3.50;2.77;;;27.40;29.30;;;;;;2252128;61;20366;-64
2021/06/23 04:26:25;0.00;0.00;0.62;0.00;0.00;0.62;3.10;2.40;;;27.40;29.30;;;;;;2252414;61;20365;-64
2021/06/23 04:28:52;0.00;0.00;0.62;0.00;0.00;0.62;2.83;2.53;;;27.40;29.30;;;;;;2249285;61;20362;-64
2021/06/23 04:31:19;0.00;0.00;0.62;0.00;0.00;0.62;3.87;2.70;;;27.40;29.30;;;;;;2252073;61;20436;-66
2021/06/23 04:33:47;0.00;0.00;0.62;0.00;0.00;0.62;4.40;3.00;;;27.40;29.30;;;;;;2249581;61;20866;-66
2021/06/23 04:36:15;0.00;0.00;0.62;0.00;0.00;0.62;4.90;2.80;;;27.40;29.40;;;;;;2252128;61;20441;-68
2021/06/23 04:38:42;0.00;0.00;0.62;0.00;0.00;0.62;3.17;2.30;;;27.40;29.40;;;;;;2249268;61;20377;-66
2021/06/23 04:41:09;0.00;0.00;0.62;0.00;0.00;0.62;3.90;2.90;;;27.40;29.40;;;;;;2251889;61;20764;-66
2021/06/23 04:43:39;0.00;0.00;0.62;0.00;0.00;0.62;3.30;2.97;;;27.40;29.40;;;;;;2251876;61;20487;-64
2021/06/23 04:46:06;0.00;0.00;0.62;0.00;0.00;0.62;4.10;2.70;;;27.40;29.40;;;;;;2252366;61;20404;-65
2021/06/23 04:48:34;0.00;0.00;0.62;0.00;0.00;0.62;3.40;2.70;;;27.40;29.40;;;;;;2249567;61;20399;-67
2021/06/23 04:51:06;0.00;0.00;0.62;0.00;0.00;0.62;4.00;2.90;;;27.40;29.40;;;;;;2251908;61;20365;-66
2021/06/23 04:53:34;0.00;0.00;0.62;0.00;0.00;0.62;3.80;2.97;;;27.40;29.40;;;;;;2249076;61;20629;-65
2021/06/23 04:56:05;0.00;0.00;0.62;0.00;0.00;0.62;4.13;2.23;;;27.40;29.40;;;;;;2252409;61;20384;-61
2021/06/23 04:58:40;0.00;0.00;0.62;0.00;0.00;0.62;4.70;2.57;;;27.40;29.40;;;;;;2251730;61;20369;-66
2021/06/23 05:01:13;0.00;0.00;0.62;0.00;0.00;0.62;3.50;2.73;;;27.40;29.40;;;;;;2249523;61;20385;-63
2021/06/23 05:03:43;0.00;0.00;0.62;0.00;0.00;0.62;3.90;2.90;;;27.40;29.40;;;;;;2251207;61;20397;-65
2021/06/23 05:06:11;0.00;0.00;0.62;0.00;0.00;0.62;3.57;2.70;;;27.40;29.40;;;;;;2251893;61;20365;-66
2021/06/23 05:08:38;0.00;0.00;0.62;0.00;0.00;0.62;2.77;2.53;;;27.40;29.50;;;;;;2249613;61;20449;-62
2021/06/23 05:11:05;0.00;0.00;0.62;0.00;0.00;0.62;3.03;2.73;;;27.40;29.50;;;;;;2252168;61;20453;-63
2021/06/23 05:13:32;0.00;0.00;0.62;0.00;0.00;0.62;3.13;2.40;;;27.40;29.50;;;;;;2249171;61;20490;-67
2021/06/23 05:15:59;0.00;0.00;0.62;0.00;0.00;0.62;3.50;2.47;;;27.40;29.50;;;;;;2249410;61;20368;-63
2021/06/23 05:18:29;0.00;0.00;0.62;0.00;0.00;0.62;4.03;3.10;;;27.40;29.50;;;;;;2249457;61;20365;-66
2021/06/23 05:20:56;0.00;0.00;0.62;0.00;0.00;0.62;2.37;2.10;;;27.40;29.50;;;;;;2249052;61;20416;-67
2021/06/23 05:23:25;0.00;0.00;0.62;0.00;0.00;0.62;5.23;2.50;;;27.40;29.50;;;;;;2249587;61;20392;-67
2021/06/23 05:25:52;0.00;0.00;0.62;0.00;0.00;0.62;4.73;2.20;;;27.40;29.50;;;;;;2249328;61;20362;-70
2021/06/23 05:28:18;0.00;0.00;0.62;0.00;0.00;0.62;4.37;2.73;;;27.40;29.50;;;;;;2249131;61;20365;-72
2021/06/23 05:30:45;0.00;0.00;0.62;0.00;0.00;0.62;3.67;2.20;;;27.40;29.50;;;;;;2249400;61;20353;-66
2021/06/23 05:33:12;0.00;0.00;0.62;0.00;0.00;0.62;3.80;1.90;;;27.40;29.40;;;;;;2249064;61;20421;-67
2021/06/23 05:35:39;0.00;0.00;0.62;0.00;0.00;0.62;4.20;2.60;;;27.40;29.40;;;;;;2249192;61;20365;-70
2021/06/23 05:38:06;0.00;0.00;0.62;0.00;0.00;0.62;4.37;2.60;;;27.40;29.30;;;;;;2252167;61;20393;-65
2021/06/23 05:40:38;0.00;0.00;0.62;0.00;0.00;0.62;6.83;3.40;;;27.50;29.20;;;;;;2249379;61;20390;-66
2021/06/23 05:43:05;0.00;0.00;0.62;0.00;0.00;0.62;3.20;2.30;;;27.50;29.10;;;;;;2251966;61;20394;-70
2021/06/23 05:45:32;0.00;0.00;0.62;0.00;0.00;0.62;5.53;2.80;;;27.40;28.90;;;;;;2249449;61;20365;-66
2021/06/23 05:47:58;0.00;0.00;0.62;0.00;0.00;0.62;5.10;2.67;;;27.40;29.00;;;;;;2249405;61;20361;-69
2021/06/23 05:50:25;0.00;0.00;0.62;0.00;0.00;0.62;5.70;2.83;;;27.40;29.00;;;;;;2249040;61;20392;-72
2021/06/23 05:52:51;0.00;0.00;0.62;0.00;0.00;0.62;6.83;2.90;;;27.40;28.90;;;;;;2249378;61;20385;-67
2021/06/23 05:55:21;0.00;0.00;0.62;0.00;0.00;0.62;3.17;2.20;;;27.40;29.40;;;;;;2249435;61;20362;-68
2021/06/23 05:57:51;0.00;0.00;0.62;0.00;0.00;0.62;5.00;2.30;;;27.40;28.90;;;;;;2249056;61;20357;-70
2021/06/23 06:00:20;0.00;0.00;0.62;0.00;0.00;0.62;3.63;2.30;;;27.40;29.00;;;;;;2249893;61;20366;-68
2021/06/23 06:02:47;0.00;0.00;0.62;0.00;0.00;0.62;4.23;2.37;;;27.40;29.00;;;;;;2252956;61;20385;-64
2021/06/23 06:05:14;0.00;0.00;0.62;0.00;0.00;0.62;5.37;2.37;;;27.40;29.10;;;;;;2249788;61;20683;-72
2021/06/23 06:07:42;0.00;0.00;0.62;0.00;0.00;0.62;3.53;1.87;;;27.40;29.10;;;;;;2252767;61;20400;-66
2021/06/23 06:10:10;0.00;0.00;0.62;0.00;0.00;0.62;4.90;2.30;;;27.40;29.10;;;;;;2249977;61;20369;-65
2021/06/23 06:12:37;0.00;0.00;0.62;0.00;0.00;0.62;4.30;2.50;;;27.40;29.20;;;;;;2249856;61;20413;-64
2021/06/23 06:15:08;0.00;0.00;0.62;0.00;0.00;0.62;2.43;1.70;;;27.40;29.20;;;;;;2250019;61;20434;-67
2021/06/23 06:17:35;0.00;0.00;0.62;0.00;0.00;0.62;3.67;2.23;;;27.40;29.20;;;;;;2250123;61;20380;-65
2021/06/23 06:20:05;0.00;0.00;0.62;0.00;0.00;0.62;2.40;2.10;;;27.40;29.30;;;;;;2251930;61;20366;-73
2021/06/23 06:22:33;0.00;0.00;0.62;0.00;0.00;0.62;2.33;1.87;;;27.40;29.30;;;;;;2249764;61;20777;-68
2021/06/23 06:25:00;0.00;0.00;0.62;0.00;0.00;0.62;4.13;2.43;;;27.50;29.30;;;;;;2252729;61;20694;-69
2021/06/23 06:27:26;0.00;0.00;0.62;0.00;0.00;0.62;4.93;2.50;;;27.40;29.30;;;;;;2249470;61;20354;-68
2021/06/23 06:29:53;0.00;0.00;0.62;0.00;0.00;0.62;2.90;1.70;;;27.50;29.30;;;;;;2249721;61;20698;-67
2021/06/23 06:32:21;0.00;0.00;0.62;0.00;0.00;0.62;3.50;2.10;;;27.50;29.30;;;;;;2249816;61;20428;-67
2021/06/23 06:34:48;0.00;0.00;0.62;0.00;0.00;0.62;3.10;2.07;;;27.50;29.30;;;;;;2252218;61;20573;-67
2021/06/23 06:37:16;0.00;0.00;0.62;0.00;0.00;0.62;3.30;2.17;;;27.50;29.30;;;;;;2249836;61;20365;-63
2021/06/23 06:39:43;0.00;0.00;0.62;0.00;0.00;0.62;3.50;2.40;;;27.50;29.30;;;;;;2249771;61;20381;-71
2021/06/23 06:42:10;0.00;0.00;0.62;0.00;0.00;0.62;3.30;2.10;;;27.50;29.40;;;;;;2252205;61;20459;-66
2021/06/23 06:44:36;0.00;0.00;0.62;0.00;0.00;0.62;3.07;1.70;;;27.50;29.40;;;;;;2249855;61;20408;-67
2021/06/23 06:47:04;0.00;0.00;0.62;0.00;0.00;0.62;2.13;1.73;;;27.50;29.50;;;;;;2249846;61;20638;-66
2021/06/23 06:49:33;0.00;0.00;0.62;0.00;0.00;0.62;3.20;1.73;;;27.50;29.40;;;;;;2248922;61;20369;-69
2021/06/23 06:52:02;0.00;0.00;0.62;0.00;0.00;0.62;3.07;2.13;;;27.60;29.50;;;;;;2249795;61;20397;-67
2021/06/23 06:54:30;0.00;0.00;0.62;0.00;0.00;0.62;2.67;2.00;;;27.60;29.50;;;;;;2249804;61;20366;-69
2021/06/23 06:56:57;0.00;0.00;0.62;0.00;0.00;0.62;4.63;2.70;;;27.60;29.50;;;;;;2249401;61;20361;-70
2021/06/23 06:59:24;0.00;0.00;0.62;0.00;0.00;0.62;4.03;2.47;;;27.60;29.40;;;;;;2249719;61;20674;-66
2021/06/23 07:01:51;0.00;0.00;0.62;0.00;0.00;0.62;5.23;2.90;;;27.60;29.40;;;;;;2249750;61;20393;-68
2021/06/23 07:04:18;0.00;0.00;0.62;0.00;0.00;0.62;3.27;2.23;;;27.60;29.40;;;;;;2249290;61;20362;-69
2021/06/23 07:06:47;0.00;0.00;0.62;0.00;0.00;0.62;4.40;2.50;;;27.60;29.40;;;;;;2249677;61;20393;-63
2021/06/23 07:09:14;0.00;0.00;0.62;0.00;0.00;0.62;5.33;2.63;;;27.60;29.40;;;;;;2249686;61;20465;-66
2021/06/23 07:11:42;0.00;0.00;0.62;0.00;0.00;0.62;2.87;2.30;;;27.60;29.40;;;;;;2251831;61;20358;-67
2021/06/23 07:14:09;0.00;0.00;0.62;0.00;0.00;0.62;3.87;2.50;;;27.60;29.40;;;;;;2249258;61;20368;-68
2021/06/23 07:16:36;0.00;0.00;0.62;0.00;0.00;0.62;5.07;2.20;;;27.60;29.30;;;;;;2249691;61;20588;-65
2021/06/23 07:19:03;0.00;0.00;0.62;0.00;0.00;0.62;3.30;2.57;;;27.70;29.40;;;;;;2249385;61;20366;-64
2021/06/23 07:21:29;0.00;0.00;0.62;0.00;0.00;0.62;5.63;2.53;;;27.70;29.40;;;;;;2249661;61;20498;-68
2021/06/23 07:23:58;0.00;0.00;0.62;0.00;0.00;0.62;5.07;3.33;;;27.70;29.40;;;;;;2249703;61;20362;-63
2021/06/23 07:26:26;0.00;0.00;0.62;0.00;0.00;0.62;3.77;2.23;;;27.70;29.40;;;;;;2249234;61;20361;-69
2021/06/23 07:28:54;0.00;0.00;0.62;0.00;0.00;0.62;3.07;2.33;;;27.70;29.40;;;;;;2252508;61;20559;-70
2021/06/23 07:31:26;0.00;0.00;0.62;0.00;0.00;0.62;3.30;2.57;;;27.70;29.30;;;;;;2252371;61;20354;-68
2021/06/23 07:34:21;0.00;0.00;0.62;0.00;0.00;0.62;4.50;3.00;;;27.70;29.30;;;;;;2249279;61;20719;-67
2021/06/23 07:36:46;0.00;0.00;0.62;0.00;0.00;0.62;5.30;3.00;;;27.70;29.30;;;;;;2249684;61;20445;-69
2021/06/23 07:39:17;0.00;0.00;0.62;0.00;0.00;0.62;9.23;2.80;;;27.70;29.30;;;;;;2249505;61;20376;-68
2021/06/23 07:41:46;0.00;0.00;0.62;0.00;0.00;0.62;3.37;2.53;;;27.70;29.30;;;;;;2249191;61;20396;-67
2021/06/23 07:44:16;0.00;0.00;0.62;0.00;0.00;0.62;6.80;2.57;;;27.70;29.30;;;;;;2249715;61;20368;-66
2021/06/23 07:46:49;0.00;0.00;0.62;0.00;0.00;0.62;4.53;2.80;;;27.70;29.30;;;;;;2249455;61;20369;-69
2021/06/23 07:49:17;0.00;0.00;0.62;0.00;0.00;0.62;4.40;2.83;;;27.80;29.40;;;;;;2249371;61;20357;-68
2021/06/23 07:51:58;0.00;0.00;0.62;0.00;0.00;0.62;4.50;3.50;;;27.80;29.40;;;;;;2249449;61;20441;-70
2021/06/23 07:54:48;0.00;0.00;0.62;0.00;0.00;0.62;3.67;2.67;;;27.80;29.40;;;;;;2249578;61;20361;-72
2021/06/23 08:03:16;0.00;0.00;0.62;0.00;0.00;0.62;5.43;3.40;;;27.80;29.40;;;;;;2249493;61;20451;-67
2021/06/23 08:08:35;0.00;0.00;0.62;0.00;0.00;0.62;6.10;3.00;;;27.90;29.40;;;;;;2249528;61;20519;-66
2021/06/23 08:11:18;0.00;0.00;0.62;0.00;0.00;0.62;3.17;2.73;;;27.90;29.40;;;;;;2249095;61;20428;-68
2021/06/23 08:13:46;0.00;0.00;0.62;0.00;0.00;0.62;3.63;2.53;;;27.90;29.40;;;;;;2249444;61;20760;-68
2021/06/23 08:16:12;0.00;0.00;0.62;0.00;0.00;0.62;3.77;2.90;;;27.90;29.40;;;;;;2249521;61;20719;-68
2021/06/23 08:18:39;0.00;0.00;0.62;0.00;0.00;0.62;3.50;2.53;;;28.00;29.40;;;;;;2249195;61;20362;-70
2021/06/23 08:21:06;0.00;0.00;0.62;0.00;0.00;0.62;4.33;2.80;;;28.00;29.40;;;;;;2249344;61;20377;-73
2021/06/23 08:23:34;0.00;0.00;0.62;0.00;0.00;0.62;4.70;2.90;;;28.00;29.40;;;;;;2249494;61;20661;-70
2021/06/23 08:26:03;0.00;0.00;0.62;0.00;0.00;0.62;3.23;2.87;;;28.00;29.40;;;;;;2251905;61;20377;-69
2021/06/23 08:28:30;0.00;0.00;0.62;0.00;0.00;0.62;4.10;2.50;;;28.00;29.40;;;;;;2252283;61;20442;-71
2021/06/23 08:30:56;0.00;0.00;0.62;0.00;0.00;0.62;2.90;2.43;;;28.00;29.40;;;;;;2252233;61;20364;-73
2021/06/23 08:33:26;0.00;0.00;0.62;0.00;0.00;0.62;3.03;2.70;;;28.10;29.40;;;;;;2249200;61;20730;-72
2021/06/23 08:35:53;0.00;0.00;0.62;0.00;0.00;0.62;3.77;2.40;;;28.10;29.40;;;;;;2252243;61;20455;-68
2021/06/23 08:38:22;0.00;0.00;0.62;0.00;0.00;0.62;4.40;2.53;;;28.10;29.40;;;;;;2249398;61;20357;-66
2021/06/23 08:40:49;0.00;0.00;0.62;0.00;0.00;0.62;4.20;2.40;;;28.10;29.90;;;;;;2249063;61;20757;-66
2021/06/23 08:43:20;0.00;0.00;0.62;0.00;0.00;0.62;4.53;2.53;;;28.10;29.40;;;;;;2252321;61;20608;-70
2021/06/23 08:45:48;0.00;0.00;0.62;0.00;0.00;0.62;4.53;2.50;;;28.10;29.40;;;;;;2249711;61;20370;-73
2021/06/23 08:48:15;0.00;0.00;0.62;0.00;0.00;0.62;3.10;2.30;;;28.20;29.10;;;;;;2252121;61;20366;-72
2021/06/23 08:50:42;0.00;0.00;0.62;0.00;0.00;0.62;4.93;2.40;;;28.20;29.10;;;;;;2249381;61;20354;-69
2021/06/23 08:53:09;0.00;0.00;0.62;0.00;0.00;0.62;5.00;2.90;;;28.20;29.20;;;;;;2249529;61;20468;-68
2021/06/23 08:55:36;0.00;0.00;0.62;0.00;0.00;0.62;4.03;2.60;;;28.20;29.00;;;;;;2252132;61;20362;-68
2021/06/23 08:58:05;0.00;0.00;0.62;0.00;0.00;0.62;4.03;3.27;;;28.20;29.00;;;;;;2252231;61;20361;-71
2021/06/23 09:00:34;0.00;0.00;0.62;0.00;0.00;0.62;4.30;2.80;;;28.20;28.40;;;;;;2249523;61;20416;-69
2021/06/23 09:03:02;0.00;0.00;0.62;0.00;0.00;0.62;5.87;2.87;;;28.20;27.70;;;;;;2249214;61;20464;-68
2021/06/23 09:05:52;0.00;0.00;0.62;0.00;0.00;0.62;6.27;2.97;;;28.10;27.70;;;;;;2252195;61;20361;-72
2021/06/23 09:08:35;0.00;0.00;0.62;0.00;0.00;0.62;7.47;3.17;;;28.10;27.80;;;;;;2249748;61;20380;-71
2021/06/23 09:11:14;0.00;0.00;0.62;0.00;0.00;0.62;6.80;3.30;;;28.00;27.70;;;;;;2249084;61;20721;-70
2021/06/23 09:13:40;0.00;0.00;0.62;0.00;0.00;0.62;4.63;2.90;;;28.00;27.50;;;;;;2249578;61;20748;-68
2021/06/23 09:16:10;0.00;0.00;0.62;0.00;0.00;0.62;4.17;2.47;;;27.90;27.80;;;;;;2249570;61;20445;-71
2021/06/23 09:18:39;0.00;0.00;0.62;0.00;0.00;0.62;3.90;2.47;;;27.90;28.00;;;;;;2251939;61;20369;-69
2021/06/23 09:21:13;0.00;0.00;0.62;0.00;0.00;0.62;3.50;2.70;;;27.90;28.30;;;;;;2249399;61;20397;-73
2021/06/23 09:23:44;0.00;0.00;0.62;0.00;0.00;0.62;2.40;1.80;;;27.80;28.40;;;;;;2252378;61;20381;-70
2021/06/23 09:26:18;0.00;0.00;0.62;0.00;0.00;0.62;6.20;2.60;;;27.90;28.60;;;;;;2251780;61;20602;-66
2021/06/23 09:29:02;0.00;0.00;0.62;0.00;0.00;0.62;6.60;2.07;;;27.90;28.70;;;;;;2249456;61;20404;-66
2021/06/23 09:31:51;0.00;0.00;0.62;0.00;0.00;0.62;6.97;2.37;;;27.90;28.80;;;;;;2249458;61;20401;-66
2021/06/23 09:34:22;0.00;0.00;0.62;0.00;0.00;0.62;3.57;2.90;;;27.90;28.90;;;;;;2252884;61;20372;-68
2021/06/23 09:36:49;0.00;0.00;0.62;0.00;0.00;0.62;4.00;2.40;;;27.90;28.80;;;;;;2253640;61;20400;-69
2021/06/23 09:39:19;0.00;0.00;0.62;0.00;0.00;0.62;3.37;2.20;;;28.00;28.90;;;;;;2250586;61;20504;-70
2021/06/23 09:41:47;0.00;0.00;0.62;0.00;0.00;0.62;5.83;2.77;;;28.00;28.90;;;;;;2253167;61;20477;-68
2021/06/23 09:44:14;0.00;0.00;0.62;0.00;0.00;0.62;3.60;2.53;;;28.00;28.90;;;;;;2253669;61;20757;-67
2021/06/23 09:46:45;0.00;0.00;0.62;0.00;0.00;0.62;3.93;2.30;;;28.00;28.90;;;;;;2253557;61;20357;-67
2021/06/23 09:49:14;0.00;0.00;0.62;0.00;0.00;0.62;6.60;2.87;;;28.00;29.00;;;;;;2250542;61;20598;-68
2021/06/23 09:51:49;0.00;0.00;0.62;0.00;0.00;0.62;3.57;2.00;;;28.10;29.10;;;;;;2250828;61;20477;-70
2021/06/23 09:54:19;0.00;0.00;0.62;0.00;0.00;0.62;5.60;3.60;;;28.10;29.00;;;;;;2250476;61;20357;-68
2021/06/23 09:56:47;0.00;0.00;0.62;0.00;0.00;0.62;7.20;3.10;;;28.10;28.10;;;;;;2250717;61;20368;-73
2021/06/23 09:59:26;0.00;0.00;0.62;0.00;0.00;0.62;6.87;3.67;;;28.10;28.10;;;;;;2250738;61;20368;-70
2021/06/23 10:01:54;0.00;0.00;0.62;0.00;0.00;0.62;8.17;4.07;;;28.00;28.00;;;;;;2253113;61;20471;-69
2021/06/23 10:04:21;0.00;0.00;0.62;0.00;0.00;0.62;3.80;3.10;;;28.00;27.80;;;;;;2250727;61;20505;-65